sensor_id;sensor_type;location;lat;lon;timestamp;temperature;humidity
7248;DHT22;3665;51.034;13.642;2023-08-31T00:00:09;14.80;1.00
7248;DHT22;3665;51.034;13.642;2023-08-31T00:05:19;14.80;1.00
7248;DHT22;3665;51.034;13.642;2023-08-31T00:10:04;14.80;1.00
7248;DHT22;3665;51.034;13.642;2023-08-31T00:15:08;14.80;1.00
7248;DHT22;3665;51.034;13.642;2023-08-31T00:19:54;15.00;1.00
7248;DHT22;3665;51.034;13.642;2023-08-31T00:24:45;15.10;1.00
7248;DHT22;3665;51.034;13.642;2023-08-31T00:34:53;14.70;1.00
7248;DHT22;3665;51.034;13.642;2023-08-31T00:39:55;14.40;1.00
7248;DHT22;3665;51.034;13.642;2023-08-31T00:50:02;14.10;1.00
7248;DHT22;3665;51.034;13.642;2023-08-31T00:55:04;13.90;1.00
7248;DHT22;3665;51.034;13.642;2023-08-31T00:59:54;13.70;1.00
7248;DHT22;3665;51.034;13.642;2023-08-31T01:04:46;13.60;1.00
7248;DHT22;3665;51.034;13.642;2023-08-31T01:09:49;13.60;1.00
7248;DHT22;3665;51.034;13.642;2023-08-31T01:14:43;13.60;1.00
7248;DHT22;3665;51.034;13.642;2023-08-31T01:20:19;13.50;1.00
7248;DHT22;3665;51.034;13.642;2023-08-31T01:57:14;13.60;1.00
7248;DHT22;3665;51.034;13.642;2023-08-31T02:07:58;13.60;1.00
7248;DHT22;3665;51.034;13.642;2023-08-31T02:12:43;13.60;1.00
7248;DHT22;3665;51.034;13.642;2023-08-31T02:17:30;13.60;1.00
7248;DHT22;3665;51.034;13.642;2023-08-31T02:22:26;13.40;1.00
7248;DHT22;3665;51.034;13.642;2023-08-31T02:33:32;13.40;1.00
7248;DHT22;3665;51.034;13.642;2023-08-31T03:00:09;13.20;32.00
7248;DHT22;3665;51.034;13.642;2023-08-31T03:05:30;13.10;64.90
7248;DHT22;3665;51.034;13.642;2023-08-31T03:10:17;13.00;92.60
7248;DHT22;3665;51.034;13.642;2023-08-31T03:15:58;12.90;81.70
7248;DHT22;3665;51.034;13.642;2023-08-31T03:20:43;12.80;38.40
7248;DHT22;3665;51.034;13.642;2023-08-31T03:25:30;12.80;19.50
7248;DHT22;3665;51.034;13.642;2023-08-31T03:30:17;12.70;19.80
7248;DHT22;3665;51.034;13.642;2023-08-31T03:35:24;12.70;16.40
7248;DHT22;3665;51.034;13.642;2023-08-31T03:40:25;12.70;11.90
7248;DHT22;3665;51.034;13.642;2023-08-31T03:45:12;12.80;12.20
7248;DHT22;3665;51.034;13.642;2023-08-31T03:50:22;12.90;2.30
7248;DHT22;3665;51.034;13.642;2023-08-31T04:31:57;12.40;77.00
7248;DHT22;3665;51.034;13.642;2023-08-31T04:37:01;12.60;29.70
7248;DHT22;3665;51.034;13.642;2023-08-31T04:42:19;12.60;21.90
7248;DHT22;3665;51.034;13.642;2023-08-31T05:04:17;12.60;15.80
7248;DHT22;3665;51.034;13.642;2023-08-31T05:09:30;12.70;23.60
7248;DHT22;3665;51.034;13.642;2023-08-31T05:14:17;12.70;13.60
7248;DHT22;3665;51.034;13.642;2023-08-31T05:19:25;12.80;30.10
7248;DHT22;3665;51.034;13.642;2023-08-31T05:25:01;12.80;22.70
7248;DHT22;3665;51.034;13.642;2023-08-31T05:29:47;12.90;12.40
7248;DHT22;3665;51.034;13.642;2023-08-31T05:34:33;13.10;2.20
7248;DHT22;3665;51.034;13.642;2023-08-31T05:39:21;13.40;1.00
7248;DHT22;3665;51.034;13.642;2023-08-31T05:44:11;13.50;1.00
7248;DHT22;3665;51.034;13.642;2023-08-31T05:49:11;13.60;1.00
7248;DHT22;3665;51.034;13.642;2023-08-31T05:54:03;13.80;1.00
7248;DHT22;3665;51.034;13.642;2023-08-31T05:59:12;13.70;1.00
7248;DHT22;3665;51.034;13.642;2023-08-31T06:04:27;13.90;1.00
7248;DHT22;3665;51.034;13.642;2023-08-31T06:09:16;14.10;1.00
7248;DHT22;3665;51.034;13.642;2023-08-31T06:14:00;14.00;1.00
7248;DHT22;3665;51.034;13.642;2023-08-31T06:24:11;14.00;1.00
7248;DHT22;3665;51.034;13.642;2023-08-31T06:29:31;14.80;1.00
7248;DHT22;3665;51.034;13.642;2023-08-31T06:34:17;15.00;1.00
7248;DHT22;3665;51.034;13.642;2023-08-31T06:39:11;14.80;1.00
7248;DHT22;3665;51.034;13.642;2023-08-31T06:43:57;14.70;1.00
7248;DHT22;3665;51.034;13.642;2023-08-31T06:54:08;15.10;1.00
7248;DHT22;3665;51.034;13.642;2023-08-31T06:58:52;15.50;1.00
7248;DHT22;3665;51.034;13.642;2023-08-31T07:04:03;15.80;1.00
7248;DHT22;3665;51.034;13.642;2023-08-31T07:08:59;16.10;1.00
7248;DHT22;3665;51.034;13.642;2023-08-31T07:14:05;16.00;1.00
7248;DHT22;3665;51.034;13.642;2023-08-31T07:24:44;15.90;1.00
7248;DHT22;3665;51.034;13.642;2023-08-31T07:35:10;15.00;1.00
7248;DHT22;3665;51.034;13.642;2023-08-31T07:40:01;15.10;1.00
7248;DHT22;3665;51.034;13.642;2023-08-31T07:44:45;15.30;1.00
7248;DHT22;3665;51.034;13.642;2023-08-31T07:55:31;16.00;1.00
7248;DHT22;3665;51.034;13.642;2023-08-31T08:06:21;16.70;1.00
7248;DHT22;3665;51.034;13.642;2023-08-31T08:11:10;17.00;1.00
7248;DHT22;3665;51.034;13.642;2023-08-31T08:16:28;17.30;1.00
7248;DHT22;3665;51.034;13.642;2023-08-31T08:21:37;17.80;1.00
7248;DHT22;3665;51.034;13.642;2023-08-31T08:26:24;17.70;1.00
7248;DHT22;3665;51.034;13.642;2023-08-31T08:31:09;17.90;1.00
7248;DHT22;3665;51.034;13.642;2023-08-31T08:36:00;17.90;1.00
7248;DHT22;3665;51.034;13.642;2023-08-31T08:40:52;18.30;1.00
7248;DHT22;3665;51.034;13.642;2023-08-31T08:45:52;19.00;1.00
7248;DHT22;3665;51.034;13.642;2023-08-31T08:56:14;19.50;1.00
7248;DHT22;3665;51.034;13.642;2023-08-31T09:01:00;19.80;1.00
7248;DHT22;3665;51.034;13.642;2023-08-31T09:05:48;19.90;1.00
7248;DHT22;3665;51.034;13.642;2023-08-31T09:10:52;20.10;1.00
7248;DHT22;3665;51.034;13.642;2023-08-31T09:15:40;20.70;1.00
7248;DHT22;3665;51.034;13.642;2023-08-31T09:20:32;20.20;1.00
7248;DHT22;3665;51.034;13.642;2023-08-31T09:25:50;19.20;1.00
7248;DHT22;3665;51.034;13.642;2023-08-31T09:30:38;19.20;1.00
7248;DHT22;3665;51.034;13.642;2023-08-31T09:35:24;19.30;1.00
7248;DHT22;3665;51.034;13.642;2023-08-31T09:40:14;19.40;1.00
7248;DHT22;3665;51.034;13.642;2023-08-31T09:44:59;19.00;1.00
7248;DHT22;3665;51.034;13.642;2023-08-31T09:49:48;18.50;1.00
7248;DHT22;3665;51.034;13.642;2023-08-31T09:54:37;18.40;1.00
7248;DHT22;3665;51.034;13.642;2023-08-31T09:59:25;18.40;1.00
7248;DHT22;3665;51.034;13.642;2023-08-31T10:04:17;18.60;1.00
7248;DHT22;3665;51.034;13.642;2023-08-31T10:09:17;18.80;1.00
7248;DHT22;3665;51.034;13.642;2023-08-31T10:14:07;19.40;1.00
7248;DHT22;3665;51.034;13.642;2023-08-31T10:19:07;19.80;1.00
7248;DHT22;3665;51.034;13.642;2023-08-31T10:23:56;19.90;1.00
7248;DHT22;3665;51.034;13.642;2023-08-31T10:28:46;20.10;1.00
7248;DHT22;3665;51.034;13.642;2023-08-31T10:33:33;20.10;1.00
7248;DHT22;3665;51.034;13.642;2023-08-31T10:38:28;19.80;1.00
7248;DHT22;3665;51.034;13.642;2023-08-31T10:43:26;19.90;1.00
7248;DHT22;3665;51.034;13.642;2023-08-31T10:49:01;19.60;1.00
7248;DHT22;3665;51.034;13.642;2023-08-31T10:53:47;19.80;1.00
7248;DHT22;3665;51.034;13.642;2023-08-31T10:58:37;20.50;1.00
7248;DHT22;3665;51.034;13.642;2023-08-31T11:03:25;20.90;1.00
7248;DHT22;3665;51.034;13.642;2023-08-31T11:08:14;21.20;1.00
7248;DHT22;3665;51.034;13.642;2023-08-31T11:13:18;20.80;1.00
7248;DHT22;3665;51.034;13.642;2023-08-31T11:18:05;19.20;1.00
7248;DHT22;3665;51.034;13.642;2023-08-31T11:23:16;18.00;1.00
7248;DHT22;3665;51.034;13.642;2023-08-31T11:28:12;16.90;1.00
7248;DHT22;3665;51.034;13.642;2023-08-31T11:33:03;15.60;1.00
7248;DHT22;3665;51.034;13.642;2023-08-31T11:37:50;15.10;1.00
7248;DHT22;3665;51.034;13.642;2023-08-31T11:42:36;15.10;1.00
7248;DHT22;3665;51.034;13.642;2023-08-31T11:47:24;14.60;1.00
7248;DHT22;3665;51.034;13.642;2023-08-31T11:52:13;14.10;1.00
7248;DHT22;3665;51.034;13.642;2023-08-31T11:57:00;14.30;1.00
7248;DHT22;3665;51.034;13.642;2023-08-31T12:01:48;14.70;1.00
7248;DHT22;3665;51.034;13.642;2023-08-31T12:06:37;15.70;1.00
7248;DHT22;3665;51.034;13.642;2023-08-31T12:11:27;16.50;1.00
7248;DHT22;3665;51.034;13.642;2023-08-31T12:16:14;16.30;1.00
7248;DHT22;3665;51.034;13.642;2023-08-31T12:21:32;16.20;1.00
7248;DHT22;3665;51.034;13.642;2023-08-31T12:26:21;16.70;1.00
7248;DHT22;3665;51.034;13.642;2023-08-31T12:31:11;17.60;1.00
7248;DHT22;3665;51.034;13.642;2023-08-31T12:35:56;17.90;1.00
7248;DHT22;3665;51.034;13.642;2023-08-31T12:40:45;18.20;1.00
7248;DHT22;3665;51.034;13.642;2023-08-31T12:45:34;17.50;1.00
7248;DHT22;3665;51.034;13.642;2023-08-31T12:50:28;17.30;1.00
7248;DHT22;3665;51.034;13.642;2023-08-31T13:07:25;17.00;1.00
7248;DHT22;3665;51.034;13.642;2023-08-31T13:12:15;16.50;1.00
7248;DHT22;3665;51.034;13.642;2023-08-31T13:17:00;17.40;1.00
7248;DHT22;3665;51.034;13.642;2023-08-31T13:21:49;18.20;1.00
7248;DHT22;3665;51.034;13.642;2023-08-31T13:26:38;18.40;1.00
7248;DHT22;3665;51.034;13.642;2023-08-31T13:31:24;18.80;1.00
7248;DHT22;3665;51.034;13.642;2023-08-31T13:36:12;18.90;1.00
7248;DHT22;3665;51.034;13.642;2023-08-31T13:46:45;19.00;1.00
7248;DHT22;3665;51.034;13.642;2023-08-31T13:51:45;18.80;1.00
7248;DHT22;3665;51.034;13.642;2023-08-31T13:56:31;18.00;1.00
7248;DHT22;3665;51.034;13.642;2023-08-31T14:01:32;17.80;1.00
7248;DHT22;3665;51.034;13.642;2023-08-31T14:07:01;17.60;1.00
7248;DHT22;3665;51.034;13.642;2023-08-31T14:49:02;19.30;1.00
7248;DHT22;3665;51.034;13.642;2023-08-31T14:54:37;19.40;1.00
7248;DHT22;3665;51.034;13.642;2023-08-31T15:10:38;19.80;1.00
7248;DHT22;3665;51.034;13.642;2023-08-31T15:49:07;17.40;1.00
7248;DHT22;3665;51.034;13.642;2023-08-31T16:59:58;16.20;1.00
7248;DHT22;3665;51.034;13.642;2023-08-31T17:04:45;16.00;1.00
7248;DHT22;3665;51.034;13.642;2023-08-31T17:09:34;15.00;1.00
7248;DHT22;3665;51.034;13.642;2023-08-31T17:19:44;14.10;1.00
7248;DHT22;3665;51.034;13.642;2023-08-31T17:24:27;13.70;1.00
7248;DHT22;3665;51.034;13.642;2023-08-31T17:29:20;13.30;1.00
7248;DHT22;3665;51.034;13.642;2023-08-31T17:34:04;12.90;3.00
7248;DHT22;3665;51.034;13.642;2023-08-31T17:38:51;12.70;19.70
7248;DHT22;3665;51.034;13.642;2023-08-31T17:43:39;12.60;30.10
7248;DHT22;3665;51.034;13.642;2023-08-31T17:48:37;12.30;51.00
7248;DHT22;3665;51.034;13.642;2023-08-31T17:53:32;12.10;99.90
7248;DHT22;3665;51.034;13.642;2023-08-31T17:58:21;11.90;99.90
7248;DHT22;3665;51.034;13.642;2023-08-31T18:03:26;12.00;1.00
7248;DHT22;3665;51.034;13.642;2023-08-31T18:08:12;11.80;1.00
7248;DHT22;3665;51.034;13.642;2023-08-31T18:13:03;11.80;52.80
7248;DHT22;3665;51.034;13.642;2023-08-31T18:17:48;11.60;1.00
7248;DHT22;3665;51.034;13.642;2023-08-31T18:22:35;11.40;1.00
7248;DHT22;3665;51.034;13.642;2023-08-31T18:27:19;11.20;99.90
7248;DHT22;3665;51.034;13.642;2023-08-31T18:32:14;11.10;1.00
7248;DHT22;3665;51.034;13.642;2023-08-31T18:37:03;10.90;99.90
7248;DHT22;3665;51.034;13.642;2023-08-31T18:41:48;10.80;99.90
7248;DHT22;3665;51.034;13.642;2023-08-31T18:46:34;10.80;99.90
7248;DHT22;3665;51.034;13.642;2023-08-31T18:51:23;10.80;99.90
7248;DHT22;3665;51.034;13.642;2023-08-31T18:56:11;11.00;99.90
7248;DHT22;3665;51.034;13.642;2023-08-31T19:01:02;11.00;99.90
7248;DHT22;3665;51.034;13.642;2023-08-31T19:05:49;11.10;99.90
7248;DHT22;3665;51.034;13.642;2023-08-31T19:10:35;11.10;99.90
7248;DHT22;3665;51.034;13.642;2023-08-31T19:15:23;11.20;99.90
7248;DHT22;3665;51.034;13.642;2023-08-31T19:20:15;11.20;99.90
7248;DHT22;3665;51.034;13.642;2023-08-31T19:25:01;11.30;99.90
7248;DHT22;3665;51.034;13.642;2023-08-31T19:29:48;11.30;99.90
7248;DHT22;3665;51.034;13.642;2023-08-31T19:34:35;11.30;99.90
7248;DHT22;3665;51.034;13.642;2023-08-31T19:39:26;11.30;99.90
7248;DHT22;3665;51.034;13.642;2023-08-31T19:44:14;11.40;99.90
7248;DHT22;3665;51.034;13.642;2023-08-31T19:49:00;11.50;99.90
7248;DHT22;3665;51.034;13.642;2023-08-31T19:53:49;11.50;99.90
7248;DHT22;3665;51.034;13.642;2023-08-31T19:58:39;11.60;78.70
7248;DHT22;3665;51.034;13.642;2023-08-31T20:03:24;11.60;99.90
7248;DHT22;3665;51.034;13.642;2023-08-31T20:08:11;11.50;12.30
7248;DHT22;3665;51.034;13.642;2023-08-31T20:13:20;11.50;99.90
7248;DHT22;3665;51.034;13.642;2023-08-31T20:18:04;11.50;57.70
7248;DHT22;3665;51.034;13.642;2023-08-31T20:22:54;11.40;32.70
7248;DHT22;3665;51.034;13.642;2023-08-31T20:27:40;11.30;1.00
7248;DHT22;3665;51.034;13.642;2023-08-31T20:32:27;11.20;1.00
7248;DHT22;3665;51.034;13.642;2023-08-31T20:37:21;11.10;99.90
7248;DHT22;3665;51.034;13.642;2023-08-31T20:42:20;11.20;1.00
7248;DHT22;3665;51.034;13.642;2023-08-31T20:47:08;11.20;99.90
7248;DHT22;3665;51.034;13.642;2023-08-31T20:51:57;11.20;99.90
7248;DHT22;3665;51.034;13.642;2023-08-31T20:56:47;11.30;1.00
7248;DHT22;3665;51.034;13.642;2023-08-31T21:01:34;11.60;99.90
7248;DHT22;3665;51.034;13.642;2023-08-31T21:06:19;11.70;1.00
7248;DHT22;3665;51.034;13.642;2023-08-31T21:11:12;11.80;1.00
7248;DHT22;3665;51.034;13.642;2023-08-31T21:15:56;11.90;1.00
7248;DHT22;3665;51.034;13.642;2023-08-31T21:20:42;11.90;1.00
7248;DHT22;3665;51.034;13.642;2023-08-31T21:25:26;12.00;99.90
7248;DHT22;3665;51.034;13.642;2023-08-31T21:30:20;12.00;99.90
7248;DHT22;3665;51.034;13.642;2023-08-31T21:35:10;12.00;99.90
7248;DHT22;3665;51.034;13.642;2023-08-31T21:39:56;12.00;99.90
7248;DHT22;3665;51.034;13.642;2023-08-31T21:44:45;12.00;99.90
7248;DHT22;3665;51.034;13.642;2023-08-31T21:49:56;12.00;99.90
7248;DHT22;3665;51.034;13.642;2023-08-31T21:54:57;11.90;99.90
7248;DHT22;3665;51.034;13.642;2023-08-31T21:59:41;11.90;99.90
7248;DHT22;3665;51.034;13.642;2023-08-31T22:04:28;11.80;99.90
7248;DHT22;3665;51.034;13.642;2023-08-31T22:09:33;11.70;99.90
7248;DHT22;3665;51.034;13.642;2023-08-31T22:14:39;11.70;99.90
7248;DHT22;3665;51.034;13.642;2023-08-31T22:19:24;11.70;99.90
7248;DHT22;3665;51.034;13.642;2023-08-31T22:29:36;11.70;99.90
7248;DHT22;3665;51.034;13.642;2023-08-31T22:34:36;11.60;99.90
7248;DHT22;3665;51.034;13.642;2023-08-31T22:39:26;11.60;99.90
7248;DHT22;3665;51.034;13.642;2023-08-31T22:44:11;11.60;99.90
7248;DHT22;3665;51.034;13.642;2023-08-31T22:49:02;11.50;99.90
7248;DHT22;3665;51.034;13.642;2023-08-31T22:53:48;11.60;99.90
7248;DHT22;3665;51.034;13.642;2023-08-31T22:58:38;11.60;99.90
7248;DHT22;3665;51.034;13.642;2023-08-31T23:03:24;11.50;99.90
7248;DHT22;3665;51.034;13.642;2023-08-31T23:08:21;11.50;99.90
7248;DHT22;3665;51.034;13.642;2023-08-31T23:13:20;11.40;99.90
7248;DHT22;3665;51.034;13.642;2023-08-31T23:18:04;11.30;99.90
7248;DHT22;3665;51.034;13.642;2023-08-31T23:22:53;11.20;99.90
7248;DHT22;3665;51.034;13.642;2023-08-31T23:27:41;11.20;99.90
7248;DHT22;3665;51.034;13.642;2023-08-31T23:32:26;11.20;1.00
7248;DHT22;3665;51.034;13.642;2023-08-31T23:37:15;11.10;1.00
7248;DHT22;3665;51.034;13.642;2023-08-31T23:42:00;11.00;1.00
7248;DHT22;3665;51.034;13.642;2023-08-31T23:46:55;10.80;1.00
7248;DHT22;3665;51.034;13.642;2023-08-31T23:51:42;10.90;1.00
7248;DHT22;3665;51.034;13.642;2023-08-31T23:56:28;10.90;99.90
